Latest Weather Observations for Strahan

IDT60801

Issued at 3:32 pm EDT Monday 27 March 2017 (issued every 30 minutes, with the page automatically refreshed every 10 minutes)

About weather observations | Map of weather stations | Latest weather observations for TAS | Other Formats
Station Details ID: 097072 Name: STRAHAN AERODROME Lat: -42.16 Lon: 145.29 Height: 21.0 m
Data from the previous 72 hours. | See also: Recent months at Strahan
Date/Time
EDT
Temp
°C
App
Temp
°C
Dew
Point
°C
Rel
Hum
%
Delta-T
°C
Wind Press
QNH
hPa
Press
MSL
hPa
Rain since
9am
mm
Dir  Spd
km/h
Gust
km/h
Spd
kts
Gust
kts
27/03:30pm 15.0 10.6 13.0 88 1.1 NNW 28 44 15 24 1003.4 1003.4 15.2
27/03:11pm 13.6 8.0 11.5 87 1.1 NNW 32 50 17 27 1003.5 1003.5 15.2
27/03:07pm 13.5 8.2 11.4 87 1.1 NNW 30 41 16 22 1002.7 1002.7 15.2
27/03:00pm 13.6 8.9 12.0 90 0.9 NNW 28 41 15 22 1002.1 1002.1 15.2
27/02:31pm 14.3 6.8 12.7 90 0.9 NW 44 63 24 34 1002.7 1002.7 14.0
27/02:30pm 14.2 6.2 12.4 89 1.0 NW 46 63 25 34 1002.7 1002.7 14.0
27/02:00pm 15.7 8.3 14.2 91 0.9 NW 46 67 25 36 1002.1 1002.1 12.4
27/01:30pm 16.3 9.8 15.0 92 0.8 NNW 43 63 23 34 1001.0 1001.0 10.4
27/01:11pm 16.8 11.3 15.8 94 0.6 NW 39 57 21 31 1001.3 1001.3 9.2
27/01:00pm 16.8 10.9 15.8 94 0.6 NW 41 57 22 31 1000.8 1000.8 8.6
27/12:57pm 16.8 10.6 15.8 94 0.6 WNW 43 65 23 35 1000.6 1000.6 8.2
27/12:39pm 18.3 11.7 16.3 88 1.2 NW 46 85 25 46 1000.1 1000.1 4.8
27/12:38pm 19.3 13.6 17.3 88 1.2 NNW 43 63 23 34 1000.1 1000.1 3.8
27/12:30pm 20.2 16.8 17.6 85 1.6 NNW 32 50 17 27 998.7 998.7 1.6
27/12:22pm 20.6 16.4 17.2 81 2.1 N 35 59 19 32 997.7 997.7 1.2
27/12:00pm 22.4 17.5 16.4 69 3.7 N 37 56 20 30 997.5 997.5 0.2
27/11:37am 23.1 19.6 16.4 66 4.1 N 30 48 16 26 997.2 997.2 0.2
27/11:30am 23.1 19.6 16.4 66 4.1 N 30 46 16 25 997.1 997.1 0.2
27/11:00am 22.6 18.0 16.2 67 3.9 N 35 57 19 31 997.6 997.6 0.2
27/10:30am 21.9 18.7 16.4 71 3.3 NNE 28 46 15 25 997.4 997.4 0.2
27/10:00am 24.5 20.0 15.4 57 5.5 N 33 61 18 33 998.5 998.5 0.0
27/09:30am 23.8 19.3 15.3 59 5.1 NNE 33 52 18 28 997.3 997.3 0.0
27/09:05am 23.0 18.8 15.6 63 4.4 NNE 32 50 17 27 997.8 997.8 0.0
27/09:00am 22.8 18.9 15.6 64 4.3 NNE 30 44 16 24 998.2 998.2 0.0
27/08:43am 22.6 18.9 15.9 66 4.0 NNE 30 50 16 27 998.7 998.7 0.0
27/08:30am 21.7 18.8 16.0 70 3.4 NNE 26 39 14 21 999.3 999.3 0.0
27/08:01am 22.1 18.3 15.7 67 3.8 NNE 30 48 16 26 999.8 999.8 0.0
27/08:00am 21.9 18.1 15.7 68 3.7 NNE 30 46 16 25 999.9 999.9 0.0
27/07:32am 21.8 18.3 15.6 68 3.7 N 28 48 15 26 1000.4 1000.4 0.0
27/07:30am 21.7 18.6 15.5 68 3.7 N 26 44 14 24 1000.4 1000.4 0.0
27/07:00am 21.5 17.9 15.3 68 3.7 NNE 28 50 15 27 1000.6 1000.6 0.0
27/06:30am 21.2 17.7 15.5 70 3.4 NNE 28 52 15 28 1001.3 1001.3 0.0
27/06:00am 21.0 17.5 15.5 71 3.3 NNE 28 46 15 25 1001.4 1001.4 0.0
27/05:30am 20.9 17.4 15.4 71 3.3 NNE 28 48 15 26 1002.1 1002.1 0.0
27/05:00am 20.8 16.5 15.4 71 3.2 NNE 32 50 17 27 1002.8 1002.8 0.0
27/04:32am 20.5 16.9 15.3 72 3.1 NNE 28 46 15 25 1003.1 1003.1 0.0
27/04:30am 20.5 17.3 15.3 72 3.1 NNE 26 46 14 25 1003.1 1003.1 0.0
27/04:02am 20.6 16.6 15.2 71 3.2 NNE 30 48 16 26 1003.8 1003.8 0.0
27/04:00am 20.5 16.1 15.1 71 3.2 NNE 32 48 17 26 1003.7 1003.7 0.0
27/03:39am 20.3 16.2 14.9 71 3.2 NNE 30 52 16 28 1003.9 1003.9 0.0
27/03:30am 20.2 16.5 15.0 72 3.1 NNE 28 44 15 24 1004.2 1004.2 0.0
27/03:17am 20.2 16.5 15.0 72 3.1 NNE 28 50 15 27 1004.5 1004.5 0.0
27/03:00am 19.7 16.7 14.7 73 2.9 NNE 24 43 13 23 1005.2 1005.2 0.0
27/02:30am 18.3 15.5 14.4 78 2.2 NNE 22 44 12 24 1005.8 1005.8 0.0
27/02:00am 16.4 14.4 13.9 85 1.4 NE 17 30 9 16 1006.7 1006.7 0.0
27/01:30am 14.1 13.8 13.3 95 0.4 ENE 7 13 4 7 1007.5 1007.5 0.0
27/01:00am 12.5 11.5 11.1 91 0.7 NE 7 9 4 5 1008.3 1008.3 0.0
27/12:30am 12.9 11.8 12.0 94 0.5 N 9 15 5 8 1009.0 1009.0 0.0
27/12:03am 12.6 11.4 11.5 93 0.6 NW 9 9 5 5 1009.3 1009.3 0.0
27/12:00am 12.5 11.6 11.4 93 0.6 NW 7 9 4 5 1009.3 1009.3 0.0
 
Date/Time
EDT
Temp
°C
App
Temp
°C
Dew
Point
°C
Rel
Hum
%
Delta-T
°C
Wind Press
QNH
hPa
Press
MSL
hPa
Rain since
9am
mm
Dir  Spd
km/h
Gust
km/h
Spd
kts
Gust
kts
26/11:41pm 13.2 13.5 12.1 93 0.6 NNE 2 6 1 3 1009.4 1009.4 0.0
26/11:30pm 14.3 14.0 13.3 94 0.6 NE 7 9 4 5 1009.6 1009.6 0.0
26/11:12pm 13.9 13.5 13.0 94 0.5 NE 7 9 4 5 1010.0 1010.0 0.0
26/11:00pm 13.8 13.3 12.7 93 0.6 ENE 7 9 4 5 1010.2 1010.2 0.0
26/10:47pm 14.1 13.7 13.0 93 0.6 ENE 7 9 4 5 1010.6 1010.6 0.0
26/10:30pm 14.8 14.3 13.8 94 0.6 NNE 9 9 5 5 1010.8 1010.8 0.0
26/10:00pm 14.2 14.0 12.9 92 0.7 NNE 6 7 3 4 1011.2 1011.2 0.0
26/09:30pm 14.7 14.6 13.4 92 0.7 NNE 6 6 3 3 1011.4 1011.4 0.0
26/09:00pm 16.1 16.3 14.8 92 0.7 NNE 7 9 4 5 1011.5 1011.5 0.0
26/08:30pm 16.3 16.8 15.0 92 0.8 NNE 6 7 3 4 1011.7 1011.7 0.0
26/08:29pm 16.3 16.8 15.0 92 0.8 NNE 6 7 3 4 1011.7 1011.7 0.0
26/08:19pm 16.2 16.7 14.9 92 0.7 NNE 6 9 3 5 1011.7 1011.7 0.0
26/08:00pm 16.3 16.1 14.8 91 0.9 NNW 9 9 5 5 1012.0 1012.0 0.0
26/07:30pm 17.1 17.5 15.3 89 1.0 NNW 7 9 4 5 1011.9 1011.9 0.0
26/07:00pm 18.0 18.1 15.4 85 1.5 NW 9 11 5 6 1011.9 1011.9 0.0
26/06:30pm 19.0 19.1 15.5 80 2.1 NW 9 13 5 7 1012.1 1012.1 0.0
26/06:00pm 19.9 19.4 16.0 78 2.3 WNW 13 15 7 8 1012.4 1012.4 0.0
26/05:30pm 20.1 19.4 15.5 75 2.7 W 13 17 7 9 1012.4 1012.4 0.0
26/05:00pm 20.9 20.3 15.7 72 3.1 W 13 17 7 9 1012.5 1012.5 0.0
26/04:30pm 21.4 21.0 16.1 72 3.2 W 13 17 7 9 1012.4 1012.4 0.0
26/04:00pm 22.0 21.6 16.1 69 3.6 W 13 17 7 9 1012.7 1012.7 0.0
26/03:30pm 21.2 20.2 15.5 70 3.4 WNW 15 17 8 9 1013.1 1013.1 0.0
26/03:00pm 21.7 22.0 16.9 74 2.9 WSW 11 15 6 8 1013.4 1013.4 0.0
26/02:30pm 21.6 21.2 16.1 71 3.3 WNW 13 17 7 9 1013.6 1013.6 0.0
26/02:00pm 21.1 20.4 16.3 74 2.9 W 15 20 8 11 1014.1 1014.1 0.0
26/01:30pm 20.7 20.8 16.5 77 2.5 W 11 15 6 8 1014.3 1014.3 0.0
26/01:00pm 21.1 21.2 16.5 75 2.8 WNW 11 15 6 8 1014.7 1014.7 0.0
26/12:30pm 19.9 19.1 15.1 74 2.8 W 13 17 7 9 1015.1 1015.1 0.0
26/12:00pm 19.5 19.9 15.4 77 2.4 SSW 7 11 4 6 1015.5 1015.5 0.0
26/11:30am 19.4 20.0 15.9 80 2.1 SW 7 9 4 5 1015.8 1015.7 0.0
26/11:00am 19.0 20.7 15.1 78 2.3 CALM 0 0 0 0 1015.7 1015.6 0.0
26/10:30am 18.3 18.7 14.8 80 2.0 ENE 6 7 3 4 1015.5 1015.5 0.0
26/10:00am 18.1 18.6 15.5 85 1.5 ESE 7 9 4 5 1015.4 1015.4 0.0
26/09:30am 17.5 18.1 15.7 89 1.1 ESE 7 9 4 5 1015.2 1015.2 0.0
26/09:00am 16.5 17.0 14.9 90 0.9 E 6 7 3 4 1015.2 1015.2 0.0
26/08:30am 16.0 17.5 14.7 92 0.7 CALM 0 0 0 0 1014.9 1014.9 0.0
26/08:00am 14.6 15.3 13.3 92 0.7 NNE 2 7 1 4 1014.7 1014.7 0.0
26/07:30am 14.9 14.3 13.6 92 0.7 N 9 13 5 7 1014.3 1014.3 0.0
26/07:00am 15.2 14.8 14.1 93 0.6 NNE 9 11 5 6 1014.1 1014.1 0.0
26/06:30am 15.8 15.9 14.5 92 0.7 NE 7 9 4 5 1013.7 1013.7 0.0
26/06:00am 15.8 17.2 14.5 92 0.7 CALM 0 0 0 0 1013.7 1013.7 0.0
26/05:32am 15.6 15.8 14.1 91 0.8 E 6 7 3 4 1013.5 1013.5 0.0
26/05:30am 15.6 15.8 14.1 91 0.8 E 6 7 3 4 1013.4 1013.4 0.0
26/05:19am 15.7 15.9 14.2 91 0.9 ENE 6 7 3 4 1013.3 1013.3 0.0
26/05:00am 15.9 16.1 14.3 90 0.9 ENE 6 7 3 4 1013.3 1013.3 0.0
26/04:30am 16.0 16.3 14.5 91 0.9 NNE 6 9 3 5 1013.3 1013.3 0.0
26/04:00am 15.8 17.2 14.3 91 0.9 CALM 0 0 0 0 1013.5 1013.5 0.0
26/03:30am 15.7 17.0 14.1 90 0.9 CALM 0 0 0 0 1013.7 1013.7 0.0
26/03:00am 16.2 16.5 14.4 89 1.0 SW 6 6 3 3 1013.7 1013.7 0.0
26/02:30am 16.3 17.4 14.7 90 0.9 SW 2 7 1 4 1014.1 1014.1 0.0
26/02:00am 16.0 16.6 14.2 89 1.0 SW 4 7 2 4 1014.0 1014.0 0.0
26/01:30am 16.5 16.8 14.5 88 1.1 NE 6 9 3 5 1013.8 1013.8 0.0
26/01:00am 16.6 16.9 14.6 88 1.1 NE 6 9 3 5 1013.9 1013.9 0.0
26/12:30am 16.6 16.9 14.6 88 1.1 NE 6 7 3 4 1013.9 1013.9 0.0
26/12:00am 16.6 17.5 15.0 90 0.9 E 4 6 2 3 1013.9 1013.9 0.0
 
Date/Time
EDT
Temp
°C
App
Temp
°C
Dew
Point
°C
Rel
Hum
%
Delta-T
°C
Wind Press
QNH
hPa
Press
MSL
hPa
Rain since
9am
mm
Dir  Spd
km/h
Gust
km/h
Spd
kts
Gust
kts
25/11:30pm 16.5 18.1 14.9 90 0.9 CALM 0 0 0 0 1013.9 1013.9 0.0
25/11:00pm 16.3 17.8 14.7 90 0.9 CALM 0 0 0 0 1014.0 1014.0 0.0
25/10:30pm 16.2 17.7 14.6 90 0.9 CALM 0 0 0 0 1013.8 1013.8 0.0
25/10:00pm 16.4 18.0 14.9 91 0.9 CALM 0 0 0 0 1013.4 1013.4 0.0
25/09:30pm 16.2 17.7 14.7 91 0.9 CALM 0 0 0 0 1013.3 1013.3 0.0
25/09:00pm 16.1 17.6 14.6 91 0.9 CALM 0 0 0 0 1012.9 1012.9 0.0
25/08:30pm 16.1 17.5 14.3 89 1.0 CALM 0 0 0 0 1012.6 1012.6 0.0
25/08:00pm 16.4 17.7 14.2 87 1.3 CALM 0 6 0 3 1012.3 1012.3 0.0
25/07:30pm 17.2 17.7 15.0 87 1.3 ENE 6 7 3 4 1012.2 1012.2 0.0
25/07:00pm 17.6 18.2 15.2 86 1.4 NE 6 7 3 4 1012.1 1012.1 0.0
25/06:30pm 17.7 18.3 15.3 86 1.4 NE 6 7 3 4 1012.1 1012.1 0.0
25/06:00pm 17.9 18.4 15.5 86 1.4 NE 7 9 4 5 1011.8 1011.8 0.0
25/05:30pm 17.7 17.5 15.7 88 1.2 ENE 11 15 6 8 1011.7 1011.7 0.0
25/05:14pm 17.5 16.8 15.5 88 1.2 ENE 13 17 7 9 1011.6 1011.6 0.0
25/05:00pm 17.6 18.0 15.4 87 1.3 NNE 7 11 4 6 1011.7 1011.7 0.0
25/04:44pm 18.0 18.0 15.1 83 1.7 NNW 9 11 5 6 1011.9 1011.9 0.0
25/04:30pm 18.3 18.1 14.6 79 2.1 NNE 9 13 5 7 1011.7 1011.7 0.0
25/04:00pm 19.1 18.0 14.4 74 2.7 NNE 13 19 7 10 1011.7 1011.7 0.0
25/03:30pm 19.0 18.7 14.5 75 2.6 NNE 9 13 5 7 1011.8 1011.8 0.0
25/03:00pm 19.0 18.7 14.5 75 2.6 N 9 15 5 8 1012.0 1012.0 0.0
25/02:30pm 18.5 17.3 14.0 75 2.6 N 13 19 7 10 1012.2 1012.2 0.0
25/02:00pm 18.3 17.0 13.6 74 2.7 N 13 20 7 11 1012.3 1012.3 0.0
25/01:30pm 18.3 17.4 13.8 75 2.6 N 11 13 6 7 1012.4 1012.4 0.0
25/01:00pm 19.0 18.4 13.6 71 3.1 N 9 17 5 9 1012.4 1012.4 0.0
25/12:30pm 18.6 18.3 13.2 71 3.1 ESE 7 11 4 6 1012.5 1012.5 0.0
25/12:00pm 17.9 16.4 13.2 74 2.6 SE 13 15 7 8 1012.7 1012.7 0.0
25/11:30am 17.3 17.0 13.2 77 2.3 SE 7 11 4 6 1013.1 1013.1 0.0
25/11:00am 17.0 16.6 12.9 77 2.3 SE 7 11 4 6 1013.1 1013.1 0.0
25/10:30am 16.1 15.2 12.7 80 1.9 SSE 9 13 5 7 1013.1 1013.1 0.0
25/10:00am 15.3 14.0 12.6 84 1.5 SE 11 13 6 7 1013.2 1013.2 0.0
25/09:30am 14.3 13.3 12.3 88 1.1 ESE 9 13 5 7 1013.3 1013.3 0.0
25/09:00am 13.7 14.3 11.9 89 1.0 CALM 0 0 0 0 1013.3 1013.3 0.4
25/08:30am 13.0 13.0 11.2 89 0.9 ENE 2 6 1 3 1013.4 1013.4 0.4
25/08:00am 12.5 11.4 10.7 89 0.9 ESE 7 9 4 5 1013.4 1013.4 0.2
25/07:30am 12.4 11.3 10.5 88 1.0 NNE 7 11 4 6 1013.5 1013.5 0.2
25/07:00am 12.5 11.5 10.9 90 0.8 N 7 9 4 5 1014.0 1014.0 0.2
25/06:30am 12.8 11.8 11.0 89 0.9 ENE 7 9 4 5 1013.8 1013.8 0.2
25/06:00am 12.8 11.5 11.2 90 0.8 SE 9 11 5 6 1014.1 1014.1 0.2
25/05:30am 12.7 11.3 10.9 89 0.9 E 9 11 5 6 1014.5 1014.5 0.2
25/05:00am 12.9 11.9 11.1 89 0.9 N 7 9 4 5 1015.1 1015.1 0.0
25/04:30am 12.8 11.9 11.2 90 0.8 NNW 7 11 4 6 1015.3 1015.3 0.0
25/04:00am 12.7 11.7 10.9 89 0.9 NNE 7 9 4 5 1014.9 1014.9 0.0
25/03:30am 12.5 11.1 10.9 90 0.8 E 9 13 5 7 1014.8 1014.8 0.0
25/03:00am 12.9 11.9 11.1 89 0.9 NNE 7 11 4 6 1015.8 1015.7 0.0
25/02:30am 12.6 11.5 10.7 88 1.0 NE 7 9 4 5 1016.3 1016.2 0.0
25/02:00am 12.5 11.9 10.4 87 1.1 NNE 4 7 2 4 1016.6 1016.5 0.0
25/01:30am 13.1 12.3 11.2 88 1.0 NNE 6 7 3 4 1016.8 1016.7 0.0
25/01:00am 12.9 12.4 10.6 86 1.2 N 4 7 2 4 1017.0 1016.9 0.0
25/12:30am 13.6 12.7 11.5 87 1.1 NNE 7 9 4 5 1017.4 1017.3 0.0
25/12:00am 13.8 12.6 11.7 87 1.1 NNE 9 11 5 6 1017.6 1017.5 0.0
 
Date/Time
EDT
Temp
°C
App
Temp
°C
Dew
Point
°C
Rel
Hum
%
Delta-T
°C
Wind Press
QNH
hPa
Press
MSL
hPa
Rain since
9am
mm
Dir  Spd
km/h
Gust
km/h
Spd
kts
Gust
kts
24/11:30pm 13.8 13.1 11.5 86 1.2 NNE 6 7 3 4 1018.0 1017.9 0.0
24/11:00pm 14.5 13.9 11.7 83 1.5 NE 6 7 3 4 1018.1 1018.0 0.0
24/10:30pm 14.5 14.2 11.5 82 1.6 NW 4 6 2 3 1018.3 1018.2 0.0
24/10:00pm 14.9 14.2 12.0 83 1.6 N 7 9 4 5 1018.4 1018.3 0.0
24/09:30pm 14.8 13.7 12.1 84 1.5 NNW 9 11 5 6 1018.6 1018.5 0.0
24/09:00pm 15.2 14.8 12.9 86 1.3 NNE 7 9 4 5 1018.6 1018.5 0.0
24/08:30pm 15.1 14.7 13.0 87 1.2 NW 7 9 4 5 1018.5 1018.4 0.0
24/08:00pm 14.9 14.8 12.2 84 1.5 NW 4 7 2 4 1018.6 1018.5 0.0
24/07:30pm 15.9 15.4 12.8 82 1.7 NNE 7 15 4 8 1018.1 1018.0 0.0
24/07:00pm 16.6 16.0 13.5 82 1.7 NNW 9 11 5 6 1018.8 1018.7 0.0
24/06:30pm 17.0 17.2 13.1 78 2.2 SSE 4 6 2 3 1018.9 1018.8 0.0
24/06:00pm 17.3 16.9 13.0 76 2.4 SSE 7 9 4 5 1018.9 1018.8 0.0
24/05:30pm 17.5 16.3 12.8 74 2.6 SSE 11 15 6 8 1019.4 1019.3 0.0
24/05:00pm 17.8 16.7 12.0 69 3.2 S 9 15 5 8 1019.1 1019.0 0.0
24/04:30pm 17.9 15.3 12.1 69 3.2 SW 17 20 9 11 1019.5 1019.4 0.0
24/04:00pm 18.7 16.3 12.7 68 3.4 WSW 17 20 9 11 1019.8 1019.7 0.0

Other Formats:

Comma delimited format used in spreadsheet applications
http://www.bom.gov.au/fwo/IDT60801/IDT60801.94956.axf

JavaScript Object Notation format (JSON) in row-major order
http://www.bom.gov.au/fwo/IDT60801/IDT60801.94956.json